Time;durP1;ratioP1;P1;durP2;ratioP2;P2;SDS_P1;SDS_P2;PMS_P1;PMS_P2;Temp;Humidity;BMP_temperature;BMP_pressure;BME280_temperature;BME280_humidity;BME280_pressure;Samples;Min_cycle;Max_cycle;Signal;HPM_P1;HPM_P2
2022/11/08 00:01:55;;;;;;;9.37;5.63;;;;;5.70;96401.00;;;;10184211;23;20193;-75
2022/11/08 00:14:46;;;;;;;12.60;5.97;;;;;5.50;96389.00;;;;10170230;23;20668;-76
2022/11/08 00:18:49;;;;;;;13.50;7.50;;;;;5.50;96392.00;;;;10184464;23;20202;-76
2022/11/08 00:22:53;;;;;;;15.60;7.47;;;;;5.60;96392.00;;;;10172127;23;20201;-76
2022/11/08 00:26:57;;;;;;;12.23;7.40;;;;;5.70;96393.00;;;;10185840;23;20276;-76
2022/11/08 00:31:33;;;;;;;14.77;6.57;;;;;5.70;96387.00;;;;10183870;23;20492;-75
2022/11/08 00:35:37;;;;;;;16.20;7.50;;;;;5.70;96379.00;;;;10186004;23;20482;-76
2022/11/08 00:39:41;;;;;;;21.57;9.83;;;;;5.70;96385.00;;;;10184585;23;20198;-76
2022/11/08 00:43:44;;;;;;;18.13;9.83;;;;;5.90;96386.00;;;;10184245;23;20252;-76
2022/11/08 00:47:47;;;;;;;145.43;15.47;;;;;5.90;96382.00;;;;10184742;23;20572;-76
2022/11/08 00:51:51;;;;;;;75.20;13.80;;;;;6.00;96370.00;;;;10181152;23;20194;-76
2022/11/08 00:56:27;;;;;;;741.47;39.57;;;;;6.10;96378.00;;;;10184291;23;20198;-76
2022/11/08 01:00:32;;;;;;;649.80;33.43;;;;;6.20;96376.00;;;;10184657;23;20223;-76
2022/11/08 01:04:35;;;;;;;381.40;19.70;;;;;6.10;96377.00;;;;10184094;23;20201;-76
2022/11/08 01:08:38;;;;;;;550.40;30.30;;;;;5.90;96381.00;;;;10184627;23;20200;-76
2022/11/08 01:12:41;;;;;;;599.77;31.93;;;;;5.70;96380.00;;;;10184500;23;20537;-76
2022/11/08 01:16:46;;;;;;;713.57;39.57;;;;;5.60;96369.00;;;;10183599;23;20278;-75
2022/11/08 01:21:20;;;;;;;383.93;27.63;;;;;5.60;96372.00;;;;10185330;23;22706;-75
2022/11/08 01:25:23;;;;;;;220.83;18.83;;;;;5.60;96362.00;;;;10178246;23;20623;-75
2022/11/08 01:29:26;;;;;;;104.50;13.80;;;;;5.50;96367.00;;;;10182731;23;20202;-75
2022/11/08 01:33:30;;;;;;;61.10;11.30;;;;;5.50;96357.00;;;;10183944;23;20193;-75
2022/11/08 01:38:04;;;;;;;73.83;12.30;;;;;5.40;96360.00;;;;10182705;23;20470;-75
2022/11/08 01:42:07;;;;;;;81.97;11.70;;;;;5.30;96359.00;;;;10182853;23;20208;-74
2022/11/08 01:46:38;;;;;;;163.27;13.90;;;;;5.30;96357.00;;;;10184432;23;20198;-75
2022/11/08 01:50:42;;;;;;;332.60;20.17;;;;;5.30;96346.00;;;;10162965;23;20253;-74
2022/11/08 01:55:16;;;;;;;581.77;30.57;;;;;5.20;96349.00;;;;10183438;23;20201;-74
2022/11/08 01:59:19;;;;;;;486.90;26.37;;;;;5.20;96345.00;;;;10169192;23;20201;-73
2022/11/08 02:03:22;;;;;;;448.07;23.47;;;;;5.20;96341.00;;;;10186750;23;20197;-74
2022/11/08 02:08:00;;;;;;;258.63;18.57;;;;;5.20;96340.00;;;;10186536;23;20197;-73
2022/11/08 02:12:04;;;;;;;227.37;17.10;;;;;5.20;96339.00;;;;10155898;23;20478;-73
2022/11/08 02:16:12;;;;;;;74.27;9.87;;;;;5.30;96334.00;;;;10138212;23;20190;-73
2022/11/08 02:20:15;;;;;;;346.07;20.80;;;;;5.30;96336.00;;;;10138074;23;20213;-73
2022/11/08 02:24:20;;;;;;;331.00;21.83;;;;;5.20;96321.00;;;;10137876;23;20194;-74
2022/11/08 02:28:23;;;;;;;385.93;24.23;;;;;5.20;96322.00;;;;10137799;23;20214;-74
2022/11/08 02:32:26;;;;;;;255.37;18.63;;;;;5.20;96323.00;;;;10138083;23;20197;-75
2022/11/08 02:36:29;;;;;;;244.77;18.57;;;;;5.30;96321.00;;;;10137371;23;20198;-75
2022/11/08 02:40:45;;;;;;;236.60;18.33;;;;;5.30;96321.00;;;;10136778;23;20206;-75
2022/11/08 02:45:08;;;;;;;152.43;14.83;;;;;5.30;96320.00;;;;10172383;23;20202;-75
2022/11/08 02:49:11;;;;;;;198.27;15.80;;;;;5.40;96319.00;;;;10169504;23;20199;-76
2022/11/08 02:53:14;;;;;;;262.87;20.03;;;;;5.40;96314.00;;;;10185924;23;20200;-75
2022/11/08 02:57:19;;;;;;;319.43;21.47;;;;;5.40;96312.00;;;;10174142;23;20205;-75
2022/11/08 03:01:22;;;;;;;240.40;19.93;;;;;5.50;96295.00;;;;10185112;23;20642;-76
2022/11/08 03:05:26;;;;;;;201.07;18.33;;;;;5.50;96294.00;;;;10186594;23;20205;-75
2022/11/08 03:09:29;;;;;;;327.67;21.20;;;;;5.50;96294.00;;;;10186020;23;20642;-76
2022/11/08 03:13:34;;;;;;;378.07;23.87;;;;;5.60;96300.00;;;;10184356;23;20205;-76
2022/11/08 03:18:08;;;;;;;348.53;23.97;;;;;5.70;96293.00;;;;10168110;23;20494;-76
2022/11/08 03:22:11;;;;;;;197.23;18.07;;;;;5.80;96291.00;;;;10180320;23;20721;-77
2022/11/08 03:26:14;;;;;;;50.53;11.50;;;;;5.90;96297.00;;;;10181865;23;20197;-77
2022/11/08 03:30:19;;;;;;;128.50;14.67;;;;;5.90;96281.00;;;;10183958;23;20260;-77
2022/11/08 03:34:58;;;;;;;167.73;15.43;;;;;5.90;96291.00;;;;10182094;23;20205;-76
2022/11/08 03:39:01;;;;;;;65.03;11.20;;;;;5.90;96282.00;;;;10182653;23;20225;-76
2022/11/08 03:43:38;;;;;;;70.63;11.37;;;;;5.90;96279.00;;;;10184150;23;20248;-76
2022/11/08 03:48:15;;;;;;;73.00;10.80;;;;;5.80;96276.00;;;;10183185;23;20190;-76
2022/11/08 03:52:20;;;;;;;259.10;20.27;;;;;5.90;96272.00;;;;10183181;23;20190;-76
2022/11/08 03:56:54;;;;;;;195.27;16.40;;;;;5.90;96276.00;;;;10182599;23;20548;-75
2022/11/08 04:01:30;;;;;;;224.33;18.03;;;;;6.00;96273.00;;;;10182002;23;20213;-75
2022/11/08 04:06:09;;;;;;;244.97;19.30;;;;;6.00;96280.00;;;;10182205;23;20628;-75
2022/11/08 04:10:13;;;;;;;297.30;22.97;;;;;6.20;96277.00;;;;10182297;23;20315;-76
2022/11/08 04:23:30;;;;;;;106.83;15.23;;;;;6.20;96284.00;;;;10130617;23;1250655;-74
2022/11/08 04:27:33;;;;;;;116.23;13.57;;;;;6.20;96286.00;;;;10184580;23;20611;-74
2022/11/08 04:32:10;;;;;;;235.57;17.97;;;;;6.20;96284.00;;;;10185142;23;20194;-74
2022/11/08 04:36:14;;;;;;;105.70;12.70;;;;;6.10;96277.00;;;;10167894;23;20190;-72
2022/11/08 04:40:50;;;;;;;101.40;12.87;;;;;6.10;96270.00;;;;10184582;23;20210;-72
2022/11/08 04:45:23;;;;;;;131.10;14.33;;;;;6.10;96275.00;;;;10152872;23;20716;-72
2022/11/08 04:49:26;;;;;;;108.50;13.73;;;;;6.10;96259.00;;;;10185489;23;20186;-72
2022/11/08 04:54:06;;;;;;;172.07;16.73;;;;;6.10;96256.00;;;;10176664;23;20197;-72
2022/11/08 04:58:42;;;;;;;152.53;16.13;;;;;6.10;96260.00;;;;10165795;23;20216;-73
2022/11/08 05:02:45;;;;;;;141.07;15.73;;;;;6.00;96260.00;;;;10184586;23;20544;-73
2022/11/08 05:06:48;;;;;;;100.47;13.00;;;;;6.00;96263.00;;;;10184810;23;20505;-73
2022/11/08 05:10:51;;;;;;;201.17;17.30;;;;;6.00;96254.00;;;;10184322;23;20525;-73
2022/11/08 05:14:56;;;;;;;113.13;13.57;;;;;6.10;96240.00;;;;10185070;23;20206;-72
2022/11/08 05:18:59;;;;;;;298.30;20.80;;;;;6.10;96247.00;;;;10183000;23;20237;-74
2022/11/08 05:27:23;;;;;;;126.17;14.77;;;;;6.00;96244.00;;;;10184698;23;20190;-73
2022/11/08 05:32:01;;;;;;;146.53;15.63;;;;;6.00;96248.00;;;;10184322;23;20212;-74
2022/11/08 05:36:06;;;;;;;124.03;14.43;;;;;5.90;96234.00;;;;10183029;23;20190;-74
2022/11/08 05:40:11;;;;;;;180.97;16.63;;;;;5.90;96237.00;;;;10183450;23;20229;-74
2022/11/08 05:44:44;;;;;;;92.90;13.37;;;;;5.80;96236.00;;;;10175129;23;20273;-73
2022/11/08 05:49:23;;;;;;;280.53;20.80;;;;;5.70;96243.00;;;;10183686;23;20208;-73
2022/11/08 05:53:56;;;;;;;314.57;20.73;;;;;5.70;96246.00;;;;10184086;23;20243;-73
2022/11/08 05:58:34;;;;;;;113.90;15.27;;;;;5.70;96238.00;;;;10182503;23;20197;-73
2022/11/08 06:03:11;;;;;;;97.97;13.97;;;;;5.70;96238.00;;;;10184284;23;20190;-73
2022/11/08 06:07:49;;;;;;;122.13;15.13;;;;;5.70;96242.00;;;;10183460;23;20283;-73
2022/11/08 06:11:53;;;;;;;116.60;14.73;;;;;5.70;96241.00;;;;10183186;23;20193;-73
2022/11/08 06:16:30;;;;;;;218.93;17.43;;;;;5.70;96235.00;;;;10193224;23;20210;-73
2022/11/08 06:21:08;;;;;;;151.83;15.30;;;;;5.70;96235.00;;;;10183384;23;20254;-73
2022/11/08 06:25:45;;;;;;;58.83;11.67;;;;;5.80;96247.00;;;;10159702;23;20194;-73
2022/11/08 06:30:17;;;;;;;101.97;14.33;;;;;5.80;96259.00;;;;10166680;23;20293;-74
2022/11/08 06:34:53;;;;;;;170.73;16.53;;;;;5.90;96250.00;;;;10160805;23;20190;-74
2022/11/08 06:39:30;;;;;;;192.43;19.07;;;;;6.00;96249.00;;;;10184400;23;20658;-73
2022/11/08 06:44:08;;;;;;;108.90;15.37;;;;;6.10;96259.00;;;;10183672;23;20481;-73
2022/11/08 06:48:11;;;;;;;113.60;15.03;;;;;6.20;96265.00;;;;10185463;23;20644;-73
2022/11/08 06:52:14;;;;;;;179.77;21.80;;;;;6.30;96257.00;;;;10187296;23;20504;-73
2022/11/08 06:56:17;;;;;;;158.40;20.30;;;;;6.50;96263.00;;;;10186792;23;20619;-72
2022/11/08 07:00:23;;;;;;;223.97;23.03;;;;;6.60;96252.00;;;;10187103;23;20202;-73
2022/11/08 07:04:26;;;;;;;356.03;27.57;;;;;6.80;96253.00;;;;10186431;23;20198;-72
2022/11/08 07:09:03;;;;;;;184.17;21.87;;;;;7.00;96252.00;;;;10186489;23;20194;-73
2022/11/08 07:13:10;;;;;;;175.80;21.27;;;;;7.20;96258.00;;;;10187238;23;20194;-73
2022/11/08 07:17:40;;;;;;;97.50;17.77;;;;;7.40;96273.00;;;;10185578;23;20252;-73
2022/11/08 07:22:18;;;;;;;125.70;16.73;;;;;7.50;96270.00;;;;10186001;23;20562;-73
2022/11/08 07:26:53;;;;;;;126.70;15.03;;;;;7.60;96267.00;;;;10183351;23;20242;-73
2022/11/08 07:31:30;;;;;;;147.00;16.17;;;;;7.60;96266.00;;;;10172613;23;20608;-73
2022/11/08 07:36:06;;;;;;;176.63;19.90;;;;;7.70;96267.00;;;;10171248;23;20190;-73
2022/11/08 07:40:45;;;;;;;147.40;19.80;;;;;7.90;96277.00;;;;10184600;23;20291;-73
2022/11/08 07:45:19;;;;;;;101.80;17.63;;;;;8.10;96267.00;;;;10167059;23;20213;-73
2022/11/08 07:49:56;;;;;;;63.03;16.40;;;;;8.20;96268.00;;;;10163559;23;20194;-73
2022/11/08 07:54:33;;;;;;;56.17;15.00;;;;;8.30;96272.00;;;;10185212;23;20191;-72
2022/11/08 07:59:11;;;;;;;61.63;15.90;;;;;8.50;96275.00;;;;10184941;23;20234;-73
2022/11/08 08:03:14;;;;;;;129.00;15.03;;;;;8.60;96282.00;;;;10167673;23;20190;-73
2022/11/08 08:07:51;;;;;;;202.83;17.40;;;;;8.50;96280.00;;;;10166985;23;20512;-73
2022/11/08 08:12:28;;;;;;;36.17;12.33;;;;;8.70;96266.00;;;;10183541;23;20202;-74
2022/11/08 08:16:35;;;;;;;41.70;17.80;;;;;8.60;96275.00;;;;10185615;23;20513;-73
2022/11/08 08:20:38;;;;;;;30.50;11.77;;;;;8.50;96266.00;;;;10184348;23;20636;-73
2022/11/08 08:24:41;;;;;;;30.07;13.30;;;;;8.50;96265.00;;;;10185460;23;20197;-73
2022/11/08 08:29:18;;;;;;;28.73;12.65;;;;;8.50;96263.00;;;;10185560;23;20250;-74
2022/11/08 08:33:56;;;;;;;29.57;11.77;;;;;8.50;96262.00;;;;10153622;23;20205;-74
2022/11/08 08:38:30;;;;;;;24.83;10.97;;;;;8.50;96269.00;;;;10180765;23;20256;-75
2022/11/08 08:42:34;;;;;;;22.57;10.67;;;;;8.70;96268.00;;;;10181124;23;20268;-75
2022/11/08 08:46:37;;;;;;;21.23;10.75;;;;;8.80;96263.00;;;;10184547;23;21944;-75
2022/11/08 08:50:41;;;;;;;20.00;9.37;;;;;8.90;96267.00;;;;10183612;23;20193;-75
2022/11/08 08:55:15;;;;;;;15.93;8.73;;;;;9.00;96260.00;;;;10183996;23;20197;-75
2022/11/08 08:59:52;;;;;;;11.60;7.07;;;;;9.10;96264.00;;;;10177859;23;20201;-75
2022/11/08 09:04:28;;;;;;;10.55;7.40;;;;;9.30;96270.00;;;;10182651;23;20301;-75
2022/11/08 09:09:05;;;;;;;13.07;7.50;;;;;9.50;96269.00;;;;10169513;23;20264;-75
2022/11/08 09:13:43;;;;;;;12.80;6.63;;;;;9.70;96271.00;;;;10135618;23;20685;-75
2022/11/08 09:18:17;;;;;;;11.90;5.85;;;;;10.00;96267.00;;;;10171190;23;20200;-75
2022/11/08 09:22:54;;;;;;;7.75;5.28;;;;;10.20;96271.00;;;;10183992;23;20284;-75
2022/11/08 09:27:31;;;;;;;9.73;5.47;;;;;10.50;96274.00;;;;10183736;23;20201;-75
2022/11/08 09:31:50;;;;;;;6.53;5.18;;;;;10.90;96264.00;;;;10180830;23;20190;-75
2022/11/08 09:36:24;;;;;;;6.03;4.30;;;;;11.20;96267.00;;;;10179832;23;20254;-75
2022/11/08 09:41:12;;;;;;;7.80;4.93;;;;;11.40;96267.00;;;;10183559;23;20282;-75
2022/11/08 09:45:41;;;;;;;6.30;4.47;;;;;11.80;96255.00;;;;10171812;23;20610;-75
2022/11/08 09:49:55;;;;;;;8.18;3.92;;;;;12.00;96257.00;;;;10182989;23;20194;-75
2022/11/08 09:54:22;;;;;;;3.90;3.35;;;;;12.00;96250.00;;;;10184165;23;20201;-74
2022/11/08 09:59:00;;;;;;;5.55;3.95;;;;;12.20;96245.00;;;;10184125;23;20240;-74
2022/11/08 10:03:31;;;;;;;5.13;3.78;;;;;12.20;96243.00;;;;10184414;23;20270;-74
2022/11/08 10:07:57;;;;;;;4.07;3.30;;;;;12.10;96233.00;;;;10184080;23;20197;-74
2022/11/08 10:12:16;;;;;;;3.80;3.40;;;;;12.20;96241.00;;;;10180609;23;20200;-74
2022/11/08 10:16:48;;;;;;;4.05;3.33;;;;;12.30;96238.00;;;;10184656;23;20320;-74
2022/11/08 10:21:19;;;;;;;3.63;3.28;;;;;12.50;96227.00;;;;10183885;23;20205;-74
2022/11/08 10:25:29;;;;;;;3.05;2.70;;;;;12.70;96230.00;;;;10188221;23;20197;-74
2022/11/08 10:29:58;;;;;;;3.97;3.33;;;;;12.90;96244.00;;;;10187042;23;20642;-74
2022/11/08 10:34:39;;;;;;;3.45;3.00;;;;;13.10;96234.00;;;;10187837;23;20244;-74
2022/11/08 10:39:12;;;;;;;3.00;2.75;;;;;13.20;96227.00;;;;10187864;23;20206;-74
2022/11/08 10:43:49;;;;;;;4.70;2.97;;;;;13.30;96237.00;;;;10187521;23;20252;-74
2022/11/08 10:48:26;;;;;;;5.65;3.70;;;;;13.40;96219.00;;;;10186433;23;20194;-75
2022/11/08 10:53:04;;;;;;;3.75;3.08;;;;;13.40;96218.00;;;;10187682;23;20644;-75
2022/11/08 10:57:08;;;;;;;2.83;2.63;;;;;13.40;96219.00;;;;10186164;23;20201;-75
2022/11/08 11:01:17;;;;;;;3.22;2.92;;;;;13.40;96215.00;;;;10187330;23;20201;-73
2022/11/08 11:05:47;;;;;;;2.53;2.33;;;;;13.40;96204.00;;;;10187172;23;20251;-73
2022/11/08 11:10:26;;;;;;;3.20;2.90;;;;;13.40;96213.00;;;;10184588;23;20492;-73
2022/11/08 11:14:29;;;;;;;3.38;3.08;;;;;13.50;96217.00;;;;10186813;23;20536;-73
2022/11/08 11:19:14;;;;;;;3.15;2.40;;;;;13.50;96220.00;;;;10195176;23;20630;-74
2022/11/08 11:23:43;;;;;;;2.92;2.63;;;;;13.60;96200.00;;;;10186140;23;20198;-73
2022/11/08 11:28:17;;;;;;;3.25;2.95;;;;;13.70;96197.00;;;;10186570;23;20193;-76
2022/11/08 11:32:57;;;;;;;5.43;3.88;;;;;13.80;96206.00;;;;10173376;23;20269;-73
2022/11/08 11:37:39;;;;;;;3.95;3.38;;;;;13.80;96195.00;;;;10185193;23;20200;-74
2022/11/08 11:42:13;;;;;;;3.67;2.92;;;;;13.70;96182.00;;;;10186822;23;20261;-74
2022/11/08 11:46:52;;;;;;;7.05;3.83;;;;;13.70;96180.00;;;;10185044;23;20513;-74
2022/11/08 11:51:20;;;;;;;3.40;3.10;;;;;13.80;96173.00;;;;10185838;23;20197;-73
2022/11/08 11:55:33;;;;;;;6.90;2.80;;;;;13.90;96169.00;;;;10185863;23;20194;-74
2022/11/08 12:00:02;;;;;;;5.68;3.90;;;;;13.90;96169.00;;;;10185578;23;20194;-74
2022/11/08 12:04:36;;;;;;;4.75;3.10;;;;;14.00;96174.00;;;;10185775;23;20501;-74
2022/11/08 12:09:06;;;;;;;3.47;2.90;;;;;14.00;96169.00;;;;10185720;23;20248;-78
2022/11/08 12:13:39;;;;;;;3.33;3.05;;;;;14.10;96183.00;;;;10185040;23;20201;-77
2022/11/08 12:18:21;;;;;;;4.43;3.38;;;;;14.20;96169.00;;;;10185481;23;20190;-77
2022/11/08 12:23:23;;;;;;;2.67;2.47;;;;;14.30;96174.00;;;;10185021;23;20213;-78
2022/11/08 12:28:04;;;;;;;3.40;2.97;;;;;14.50;96172.00;;;;10185080;23;20202;-77
2022/11/08 12:32:42;;;;;;;2.70;2.50;;;;;14.70;96173.00;;;;10185983;23;20194;-77
2022/11/08 12:37:17;;;;;;;5.45;3.00;;;;;14.90;96169.00;;;;10186266;23;20198;-77
2022/11/08 12:41:51;;;;;;;3.10;2.80;;;;;15.10;96147.00;;;;10184009;23;20516;-75
2022/11/08 12:46:25;;;;;;;5.13;2.80;;;;;15.10;96150.00;;;;10184330;23;20256;-77
2022/11/08 12:50:59;;;;;;;3.38;2.90;;;;;15.20;96148.00;;;;10185669;23;20198;-76
2022/11/08 12:55:37;;;;;;;4.82;2.83;;;;;15.20;96146.00;;;;10184369;23;20724;-76
2022/11/08 13:00:15;;;;;;;3.22;2.42;;;;;15.20;96139.00;;;;10185699;23;20284;-76
2022/11/08 13:05:00;;;;;;;3.35;2.42;;;;;15.10;96148.00;;;;10185050;23;20210;-76
2022/11/08 13:09:37;;;;;;;3.00;2.28;;;;;15.20;96150.00;;;;10184328;23;20213;-76
2022/11/08 13:14:14;;;;;;;2.30;2.15;;;;;15.20;96143.00;;;;10184453;23;20672;-76
2022/11/08 13:18:46;;;;;;;2.40;2.20;;;;;15.30;96143.00;;;;10186011;23;20197;-76
2022/11/08 13:23:35;;;;;;;2.53;2.30;;;;;15.30;96134.00;;;;10184080;23;20267;-76
2022/11/08 13:33:10;;;;;;;2.80;2.58;;;;;15.20;96135.00;;;;10184854;23;20201;-76
2022/11/08 13:37:46;;;;;;;3.28;2.65;;;;;15.30;96125.00;;;;10166003;23;20190;-76
2022/11/08 13:42:27;;;;;;;4.60;2.10;;;;;15.20;96128.00;;;;10184270;23;20210;-76
2022/11/08 13:47:27;;;;;;;5.35;2.35;;;;;15.20;96113.00;;;;10184269;23;20194;-76
2022/11/08 13:51:39;;;;;;;2.60;2.40;;;;;15.10;96118.00;;;;10183320;23;20197;-76
2022/11/08 13:55:47;;;;;;;4.28;2.10;;;;;15.00;96129.00;;;;10186072;23;20200;-76
2022/11/08 14:00:33;;;;;;;2.70;2.45;;;;;15.00;96132.00;;;;10188914;23;20206;-76
2022/11/08 14:05:15;;;;;;;2.47;2.28;;;;;14.90;96140.00;;;;10187180;23;20198;-76
2022/11/08 14:09:44;;;;;;;2.88;2.25;;;;;15.00;96130.00;;;;10186700;23;20193;-76
2022/11/08 14:14:15;;;;;;;3.22;2.30;;;;;14.90;96125.00;;;;10187998;23;20557;-76
2022/11/08 14:18:27;;;;;;;2.28;2.10;;;;;14.90;96118.00;;;;10157150;23;20194;-76
2022/11/08 14:23:12;;;;;;;2.38;2.17;;;;;14.80;96126.00;;;;10162820;23;20198;-76
2022/11/08 14:32:47;;;;;;;4.40;3.30;;;;;14.60;96132.00;;;;10184726;23;20237;-76
2022/11/08 14:37:25;;;;;;;5.13;3.10;;;;;14.50;96130.00;;;;10186452;23;20670;-77
2022/11/08 14:42:01;;;;;;;3.83;2.60;;;;;14.50;96126.00;;;;10186600;23;20198;-76
2022/11/08 14:46:11;;;;;;;4.25;3.00;;;;;14.30;96121.00;;;;10179101;23;20505;-76
2022/11/08 14:50:42;;;;;;;3.85;2.58;;;;;14.30;96123.00;;;;10187264;23;20489;-76
2022/11/08 14:55:22;;;;;;;4.97;2.38;;;;;14.20;96132.00;;;;10178914;23;20209;-77
2022/11/08 14:59:33;;;;;;;2.60;2.40;;;;;14.10;96123.00;;;;10186113;23;20202;-80
2022/11/08 15:04:13;;;;;;;4.10;2.15;;;;;14.10;96120.00;;;;10185031;23;20205;-80
2022/11/08 15:08:21;;;;;;;2.97;2.28;;;;;13.90;96123.00;;;;10185858;23;20190;-80
2022/11/08 15:12:52;;;;;;;4.57;2.47;;;;;13.70;96118.00;;;;10185255;23;20277;-78
2022/11/08 15:17:32;;;;;;;4.60;2.30;;;;;13.60;96110.00;;;;10186316;23;20197;-78
2022/11/08 15:21:35;;;;;;;3.17;2.63;;;;;13.50;96112.00;;;;10184132;23;20209;-79
2022/11/08 15:25:39;;;;;;;4.03;2.83;;;;;13.50;96109.00;;;;10185837;23;20520;-79
2022/11/08 15:30:15;;;;;;;3.25;2.95;;;;;13.40;96101.00;;;;10184606;23;20194;-79
2022/11/08 15:34:57;;;;;;;3.63;3.33;;;;;13.20;96098.00;;;;10182407;23;20194;-78
2022/11/08 15:39:02;;;;;;;5.78;3.17;;;;;13.10;96109.00;;;;10184874;23;20190;-77
2022/11/08 15:43:38;;;;;;;4.75;2.75;;;;;12.80;96110.00;;;;10185773;23;20501;-76
2022/11/08 15:48:20;;;;;;;6.80;3.30;;;;;12.70;96103.00;;;;10184564;23;20189;-76
2022/11/08 15:52:50;;;;;;;6.40;3.10;;;;;12.60;96103.00;;;;10184187;23;20276;-76
2022/11/08 15:56:55;;;;;;;15.15;5.32;;;;;12.50;96095.00;;;;10182672;23;20201;-76
2022/11/08 16:01:00;;;;;;;4.32;3.50;;;;;12.30;96091.00;;;;10172605;23;20270;-76
2022/11/08 16:05:13;;;;;;;5.68;4.15;;;;;12.10;96104.00;;;;10184241;23;20204;-76
2022/11/08 16:09:43;;;;;;;4.53;3.40;;;;;11.90;96102.00;;;;10161160;23;20273;-76
2022/11/08 16:13:47;;;;;;;4.13;3.72;;;;;11.70;96110.00;;;;10175189;23;20210;-77
2022/11/08 16:17:51;;;;;;;5.40;4.47;;;;;11.60;96112.00;;;;10184369;23;20198;-76
2022/11/08 16:22:28;;;;;;;6.68;4.63;;;;;11.40;96111.00;;;;10182993;23;20235;-77
2022/11/08 16:31:30;;;;;;;7.13;5.50;;;;;11.40;96104.00;;;;10184435;23;20243;-77
2022/11/08 16:36:09;;;;;;;8.02;5.68;;;;;11.30;96103.00;;;;10185280;23;20198;-77
2022/11/08 16:40:18;;;;;;;9.23;5.60;;;;;11.40;96101.00;;;;10185169;23;20199;-77
2022/11/08 16:44:22;;;;;;;9.40;6.47;;;;;11.50;96113.00;;;;10185180;23;20287;-77
2022/11/08 16:48:27;;;;;;;10.48;6.68;;;;;11.50;96111.00;;;;10184795;23;20191;-77
2022/11/08 16:53:00;;;;;;;9.93;5.78;;;;;11.40;96116.00;;;;10185386;23;20201;-77
2022/11/08 16:57:04;;;;;;;10.95;6.38;;;;;11.40;96123.00;;;;10185094;23;20234;-77
2022/11/08 17:01:31;;;;;;;10.07;5.53;;;;;11.30;96124.00;;;;10185773;23;20507;-77
2022/11/08 17:05:36;;;;;;;11.60;6.25;;;;;11.20;96131.00;;;;10184926;23;20211;-77
2022/11/08 17:10:13;;;;;;;10.35;6.07;;;;;11.20;96132.00;;;;10184898;23;20244;-77
2022/11/08 17:14:16;;;;;;;9.10;5.85;;;;;11.10;96130.00;;;;10184870;23;20610;-77
2022/11/08 17:18:20;;;;;;;12.25;6.80;;;;;11.10;96132.00;;;;10185359;23;20255;-77
2022/11/08 17:22:25;;;;;;;12.90;7.50;;;;;11.00;96130.00;;;;10183894;23;20616;-77
2022/11/08 17:27:02;;;;;;;11.02;7.45;;;;;10.90;96133.00;;;;10184091;23;20218;-77
2022/11/08 17:31:10;;;;;;;12.55;7.38;;;;;10.80;96138.00;;;;10170868;23;20197;-77
2022/11/08 17:35:14;;;;;;;12.63;6.95;;;;;10.80;96144.00;;;;10183920;23;20201;-77
2022/11/08 17:39:51;;;;;;;20.70;9.10;;;;;10.70;96133.00;;;;10183748;23;20624;-77
2022/11/08 17:43:54;;;;;;;12.95;7.65;;;;;10.70;96137.00;;;;10153882;23;20566;-77
2022/11/08 17:47:57;;;;;;;16.27;8.85;;;;;10.60;96138.00;;;;10171651;23;20480;-77
2022/11/08 17:52:00;;;;;;;19.92;9.55;;;;;10.70;96147.00;;;;10172071;23;20193;-77
2022/11/08 17:56:36;;;;;;;17.40;9.13;;;;;10.80;96148.00;;;;10172612;23;20205;-77
2022/11/08 18:00:39;;;;;;;17.63;9.32;;;;;10.80;96144.00;;;;10172231;23;20189;-77
2022/11/08 18:04:42;;;;;;;17.65;9.65;;;;;10.90;96140.00;;;;10183760;23;20197;-77
2022/11/08 18:08:45;;;;;;;20.17;11.40;;;;;10.80;96149.00;;;;10183685;23;20214;-77
2022/11/08 18:12:50;;;;;;;14.02;8.10;;;;;10.80;96155.00;;;;10184357;23;20249;-77
2022/11/08 18:16:53;;;;;;;15.95;8.38;;;;;10.70;96156.00;;;;10183121;23;20248;-77
2022/11/08 18:20:56;;;;;;;15.48;7.57;;;;;10.60;96157.00;;;;10183871;23;20202;-78
2022/11/08 18:24:59;;;;;;;15.60;7.43;;;;;10.50;96143.00;;;;10184232;23;20210;-77
2022/11/08 18:29:05;;;;;;;10.23;6.72;;;;;10.30;96143.00;;;;10183254;23;20213;-77
2022/11/08 18:33:08;;;;;;;17.42;8.20;;;;;10.20;96145.00;;;;10183566;23;20256;-77
2022/11/08 18:37:11;;;;;;;15.63;10.40;;;;;10.20;96142.00;;;;10165289;23;20205;-76
2022/11/08 18:41:16;;;;;;;12.48;8.10;;;;;10.20;96136.00;;;;10183848;23;20194;-76
2022/11/08 18:45:51;;;;;;;14.05;7.82;;;;;10.10;96133.00;;;;10185674;23;20655;-77
2022/11/08 18:49:58;;;;;;;15.82;8.68;;;;;10.10;96132.00;;;;10138557;23;20497;-77
2022/11/08 18:54:01;;;;;;;12.90;8.30;;;;;10.10;96139.00;;;;10137046;23;20213;-77
2022/11/08 18:58:38;;;;;;;18.27;7.63;;;;;10.00;96140.00;;;;10137857;23;20195;-78
2022/11/08 19:02:42;;;;;;;15.40;8.45;;;;;10.00;96137.00;;;;10185598;23;20245;-77
2022/11/08 19:06:45;;;;;;;13.65;7.13;;;;;9.90;96138.00;;;;10168749;23;20262;-77
2022/11/08 19:10:58;;;;;;;16.60;7.65;;;;;9.80;96128.00;;;;10177593;23;20199;-77
2022/11/08 19:15:01;;;;;;;10.82;7.07;;;;;9.60;96125.00;;;;10183579;23;20217;-77
2022/11/08 19:19:06;;;;;;;17.13;9.07;;;;;9.60;96148.00;;;;10186575;23;20437;-77
2022/11/08 19:23:09;;;;;;;13.90;7.70;;;;;9.60;96148.00;;;;10180233;23;20198;-77
2022/11/08 19:27:12;;;;;;;17.42;8.02;;;;;9.60;96150.00;;;;10161821;23;20256;-77
2022/11/08 19:31:18;;;;;;;13.63;7.17;;;;;9.60;96142.00;;;;10136392;23;20197;-77
2022/11/08 19:35:22;;;;;;;11.10;7.75;;;;;9.70;96148.00;;;;10136647;23;20199;-78
2022/11/08 19:39:26;;;;;;;13.05;7.47;;;;;9.70;96143.00;;;;10136947;23;20194;-78
2022/11/08 19:43:29;;;;;;;13.90;7.70;;;;;9.60;96144.00;;;;10137273;23;20204;-78
2022/11/08 19:47:32;;;;;;;14.02;7.13;;;;;9.60;96136.00;;;;10137139;23;20656;-78
2022/11/08 19:51:37;;;;;;;15.48;8.05;;;;;9.60;96145.00;;;;10136608;23;20202;-78
2022/11/08 19:55:40;;;;;;;15.38;7.93;;;;;9.60;96150.00;;;;10137705;23;20202;-78
2022/11/08 19:59:44;;;;;;;17.08;8.27;;;;;9.50;96144.00;;;;10137084;23;20202;-78
2022/11/08 20:03:48;;;;;;;12.30;6.72;;;;;9.40;96143.00;;;;10185672;23;20206;-78
2022/11/08 20:07:53;;;;;;;13.93;7.57;;;;;9.40;96150.00;;;;10186112;23;20561;-78
2022/11/08 20:12:27;;;;;;;18.77;8.27;;;;;9.30;96153.00;;;;10185976;23;20249;-78
2022/11/08 20:16:34;;;;;;;14.65;7.90;;;;;9.30;96153.00;;;;10185895;23;20194;-78
2022/11/08 20:20:39;;;;;;;14.57;7.00;;;;;9.20;96155.00;;;;10185213;23;20661;-78
2022/11/08 20:24:47;;;;;;;17.85;6.53;;;;;9.20;96139.00;;;;10185490;23;20217;-78
2022/11/08 20:28:52;;;;;;;24.80;16.50;;;;;9.20;96149.00;;;;10184470;23;20201;-78
2022/11/08 20:33:08;;;;;;;10.37;6.83;;;;;9.10;96145.00;;;;10185387;23;20508;-78
2022/11/08 20:37:13;;;;;;;20.50;10.98;;;;;9.00;96140.00;;;;10185136;23;20249;-79
2022/11/08 20:41:18;;;;;;;19.83;10.38;;;;;9.10;96133.00;;;;10184884;23;20190;-77
2022/11/08 20:45:21;;;;;;;18.70;8.70;;;;;9.10;96132.00;;;;10185056;23;20198;-78
2022/11/08 20:49:58;;;;;;;24.77;15.10;;;;;9.20;96131.00;;;;10185324;23;20205;-78
2022/11/08 20:54:01;;;;;;;25.43;13.83;;;;;9.20;96135.00;;;;10184490;23;20268;-78
2022/11/08 20:58:06;;;;;;;15.80;9.05;;;;;9.30;96126.00;;;;10184339;23;20270;-78
2022/11/08 21:02:10;;;;;;;15.97;8.17;;;;;9.30;96128.00;;;;10185380;23;20194;-78
2022/11/08 21:06:16;;;;;;;15.73;9.00;;;;;9.30;96129.00;;;;10184639;23;20624;-79
2022/11/08 21:10:19;;;;;;;16.93;8.50;;;;;9.30;96133.00;;;;10184882;23;20244;-77
2022/11/08 21:14:43;;;;;;;16.73;8.38;;;;;9.30;96136.00;;;;10185410;23;20496;-78
2022/11/08 21:18:46;;;;;;;18.87;8.53;;;;;9.40;96140.00;;;;10184927;23;20512;-78
2022/11/08 21:22:49;;;;;;;17.02;8.60;;;;;9.40;96134.00;;;;10183360;23;20273;-77
2022/11/08 21:26:52;;;;;;;17.48;8.70;;;;;9.40;96130.00;;;;10184398;23;20359;-77
2022/11/08 21:30:57;;;;;;;18.27;8.57;;;;;9.30;96121.00;;;;10183993;23;20621;-77
2022/11/08 21:35:00;;;;;;;14.70;8.32;;;;;9.30;96113.00;;;;10184636;23;20257;-77
2022/11/08 21:39:03;;;;;;;15.15;9.02;;;;;9.20;96111.00;;;;10184537;23;20490;-77
2022/11/08 21:43:06;;;;;;;17.40;9.00;;;;;9.20;96110.00;;;;10184437;23;20198;-77
2022/11/08 21:47:11;;;;;;;22.63;10.73;;;;;9.10;96115.00;;;;10184478;23;20202;-76